createdAt,value
2017-04-04T00:00:53.879Z,0
2017-04-04T00:01:54.171Z,0
2017-04-04T00:02:54.153Z,0
2017-04-04T00:03:54.136Z,0
2017-04-04T00:04:54.119Z,0
2017-04-04T00:05:53.791Z,0
2017-04-04T00:06:54.089Z,0
2017-04-04T00:07:54.070Z,0
2017-04-04T00:08:54.046Z,0
2017-04-04T00:09:53.720Z,0
2017-04-04T00:10:54.014Z,0
2017-04-04T00:11:53.999Z,0
2017-04-04T00:12:53.989Z,0
2017-04-04T00:13:53.959Z,0
2017-04-04T00:14:53.949Z,0
2017-04-04T00:15:53.933Z,0
2017-04-04T00:16:53.911Z,0
2017-04-04T00:17:53.586Z,0
2017-04-04T00:18:53.873Z,0
2017-04-04T00:19:53.854Z,0
2017-04-04T00:20:53.882Z,0
2017-04-04T00:21:53.820Z,0
2017-04-04T00:22:53.494Z,0
2017-04-04T00:23:53.837Z,0
2017-04-04T00:24:53.772Z,0
2017-04-04T00:25:53.751Z,0
2017-04-04T00:26:53.732Z,0
2017-04-04T00:27:53.716Z,0
2017-04-04T00:28:53.700Z,0
2017-04-04T00:29:53.687Z,0
2017-04-04T00:30:53.353Z,0
2017-04-04T00:31:53.029Z,0
2017-04-04T00:32:53.632Z,0
2017-04-04T00:33:53.300Z,0
2017-04-04T00:34:53.274Z,0
2017-04-04T00:35:53.612Z,0
2017-04-04T00:36:53.256Z,0
2017-04-04T00:37:53.537Z,0
2017-04-04T00:38:53.518Z,0
2017-04-04T00:39:53.507Z,0
2017-04-04T00:40:53.170Z,0
2017-04-04T00:41:53.160Z,0
2017-04-04T00:42:53.137Z,0
2017-04-04T00:43:53.435Z,0
2017-04-04T00:44:53.105Z,0
2017-04-04T00:45:53.402Z,0
2017-04-04T00:46:53.588Z,0
2017-04-04T00:47:53.363Z,0
2017-04-04T00:48:53.342Z,0
2017-04-04T00:49:53.373Z,0
2017-04-04T00:50:53.003Z,0
2017-04-04T00:51:53.295Z,0
2017-04-04T00:52:53.273Z,0
2017-04-04T00:53:53.257Z,0
2017-04-04T00:54:52.925Z,0
2017-04-04T00:55:53.230Z,0
2017-04-04T00:56:53.202Z,0
2017-04-04T00:57:53.178Z,0
2017-04-04T00:58:52.855Z,0
2017-04-04T00:59:52.835Z,0
2017-04-04T01:00:52.826Z,0
2017-04-04T01:01:53.115Z,0
2017-04-04T01:02:52.784Z,0
2017-04-04T01:03:53.078Z,0
2017-04-04T01:04:52.746Z,0
2017-04-04T01:05:52.736Z,0
2017-04-04T01:06:53.032Z,0
2017-04-04T01:07:53.010Z,0
2017-04-04T01:08:52.986Z,0
2017-04-04T01:09:52.664Z,0
2017-04-04T01:10:52.957Z,0
2017-04-04T01:11:52.939Z,0
2017-04-04T01:12:52.608Z,0
2017-04-04T01:13:52.899Z,0
2017-04-04T01:14:52.878Z,0
2017-04-04T01:15:52.558Z,0
2017-04-04T01:16:52.850Z,0
2017-04-04T01:17:52.829Z,0
2017-04-04T01:18:52.498Z,0
2017-04-04T01:19:52.798Z,0
2017-04-04T01:20:52.783Z,0
2017-04-04T01:21:52.489Z,0
2017-04-04T01:22:52.423Z,0
2017-04-04T01:23:52.723Z,0
2017-04-04T01:24:52.389Z,0
2017-04-04T01:25:52.682Z,0
2017-04-04T01:26:52.351Z,0
2017-04-04T01:27:52.690Z,0
2017-04-04T01:28:52.631Z,0
2017-04-04T01:29:52.306Z,0
2017-04-04T01:30:52.593Z,0
2017-04-04T01:31:52.266Z,0
2017-04-04T01:32:52.240Z,0
2017-04-04T01:33:52.539Z,0
2017-04-04T01:34:52.208Z,0
2017-04-04T01:35:52.505Z,0
2017-04-04T01:36:52.184Z,0
2017-04-04T01:37:52.463Z,0
2017-04-04T01:38:52.143Z,0
2017-04-04T01:39:52.126Z,0
2017-04-04T01:40:52.410Z,0
2017-04-04T01:41:52.395Z,0
2017-04-04T01:42:52.380Z,0
2017-04-04T01:43:52.055Z,0
2017-04-04T01:44:52.029Z,0
2017-04-04T01:45:52.317Z,0
2017-04-04T01:46:52.294Z,0
2017-04-04T01:47:52.281Z,0
2017-04-04T01:48:52.274Z,0
2017-04-04T01:49:52.245Z,0
2017-04-04T01:50:52.229Z,0
2017-04-04T01:51:51.893Z,0
2017-04-04T01:52:52.236Z,0
2017-04-04T01:53:51.855Z,0
2017-04-04T01:54:52.150Z,0
2017-04-04T01:55:51.830Z,0
2017-04-04T01:56:51.802Z,0
2017-04-04T01:57:52.100Z,0
2017-04-04T01:58:52.082Z,0
2017-04-04T01:59:51.746Z,0
2017-04-04T02:00:51.729Z,0
2017-04-04T02:01:52.038Z,0
2017-04-04T02:02:52.023Z,0
2017-04-04T02:03:51.677Z,0
2017-04-04T02:04:51.339Z,0
2017-04-04T02:05:51.364Z,0
2017-04-04T02:06:51.932Z,0
2017-04-04T02:07:51.629Z,0
2017-04-04T02:08:51.900Z,0
2017-04-04T02:09:51.922Z,0
2017-04-04T02:10:51.862Z,0
2017-04-04T02:11:51.877Z,0
2017-04-04T02:12:51.816Z,0
2017-04-04T02:13:51.799Z,0
2017-04-04T02:14:51.827Z,0
2017-04-04T02:15:51.138Z,0
2017-04-04T02:16:51.743Z,0
2017-04-04T02:17:51.412Z,0
2017-04-04T02:18:51.734Z,0
2017-04-04T02:19:51.691Z,0
2017-04-04T02:20:51.356Z,0
2017-04-04T02:21:51.653Z,0
2017-04-04T02:22:51.633Z,0
2017-04-04T02:23:51.302Z,0
2017-04-04T02:24:51.285Z,0
2017-04-04T02:25:51.577Z,0
2017-04-04T02:26:51.556Z,0
2017-04-04T02:27:51.222Z,0
2017-04-04T02:28:51.202Z,0
2017-04-04T02:29:51.496Z,0
2017-04-04T02:30:51.523Z,0
2017-04-04T02:31:51.460Z,0
2017-04-04T02:32:51.134Z,0
2017-04-04T02:33:51.462Z,0
2017-04-04T02:34:51.098Z,0
2017-04-04T02:35:51.383Z,0
2017-04-04T02:36:51.061Z,0
2017-04-04T02:37:51.350Z,0
2017-04-04T02:38:51.326Z,0
2017-04-04T02:39:51.313Z,0
2017-04-04T02:40:51.289Z,0
2017-04-04T02:41:50.959Z,0
2017-04-04T02:42:51.271Z,0
2017-04-04T02:43:51.235Z,0
2017-04-04T02:44:51.218Z,0
2017-04-04T02:45:51.198Z,0
2017-04-04T02:46:51.384Z,0
2017-04-04T02:47:51.159Z,0
2017-04-04T02:48:50.514Z,0
2017-04-04T02:49:51.127Z,0
2017-04-04T02:50:50.792Z,0
2017-04-04T02:51:51.079Z,0
2017-04-04T02:52:51.071Z,0
2017-04-04T02:53:51.047Z,0
2017-04-04T02:54:51.028Z,0
2017-04-04T02:55:51.012Z,0
2017-04-04T02:56:50.993Z,0
2017-04-04T02:57:50.969Z,0
2017-04-04T02:58:50.642Z,0
2017-04-04T02:59:50.316Z,0
2017-04-04T03:00:50.917Z,0
2017-04-04T03:01:50.897Z,0
2017-04-04T03:02:50.767Z,0
2017-04-04T03:03:50.856Z,0
2017-04-04T03:04:50.842Z,0
2017-04-04T03:05:50.838Z,0
2017-04-04T03:06:50.802Z,0
2017-04-04T03:07:50.469Z,0
2017-04-04T03:08:50.187Z,0
2017-04-04T03:09:50.745Z,0
2017-04-04T03:10:50.731Z,0
2017-04-04T03:11:50.704Z,0
2017-04-04T03:12:50.374Z,0
2017-04-04T03:13:50.670Z,0
2017-04-04T03:14:50.658Z,0
2017-04-04T03:15:50.634Z,0
2017-04-04T03:16:50.296Z,0
2017-04-04T03:17:50.650Z,0
2017-04-04T03:18:50.578Z,0
2017-04-04T03:19:50.558Z,0
2017-04-04T03:20:50.228Z,0
2017-04-04T03:21:50.521Z,0
2017-04-04T03:22:50.497Z,0
2017-04-04T03:23:50.165Z,0
2017-04-04T03:24:50.202Z,0
2017-04-04T03:25:50.141Z,0
2017-04-04T03:26:50.105Z,0
2017-04-04T03:27:50.407Z,0
2017-04-04T03:28:50.387Z,0
2017-04-04T03:29:50.365Z,0
2017-04-04T03:30:50.361Z,0
2017-04-04T03:31:50.331Z,0
2017-04-04T03:32:50.006Z,0
2017-04-04T03:33:49.976Z,0
2017-04-04T03:34:50.275Z,0
2017-04-04T03:35:49.939Z,0
2017-04-04T03:36:50.241Z,0
2017-04-04T03:37:50.225Z,0
2017-04-04T03:38:49.946Z,0
2017-04-04T03:39:50.178Z,0
2017-04-04T03:40:50.151Z,0
2017-04-04T03:41:50.137Z,0
2017-04-04T03:42:50.119Z,0
2017-04-04T03:43:50.102Z,0
2017-04-04T03:44:50.089Z,0
2017-04-04T03:45:49.755Z,0
2017-04-04T03:46:50.046Z,0
2017-04-04T03:47:50.024Z,0
2017-04-04T03:48:50.002Z,0
2017-04-04T03:49:49.984Z,0
2017-04-04T03:50:49.967Z,0
2017-04-04T03:51:49.952Z,0
2017-04-04T03:52:49.932Z,0
2017-04-04T03:53:49.916Z,0
2017-04-04T03:54:49.893Z,0
2017-04-04T03:55:49.877Z,0
2017-04-04T03:56:49.536Z,0
2017-04-04T03:57:49.831Z,0
2017-04-04T03:58:49.810Z,0
2017-04-04T03:59:49.787Z,0
2017-04-04T04:00:49.775Z,0
2017-04-04T04:01:49.447Z,0
2017-04-04T04:02:49.736Z,0
2017-04-04T04:03:49.717Z,0
2017-04-04T04:04:49.697Z,0
2017-04-04T04:05:49.686Z,0
2017-04-04T04:06:49.661Z,0
2017-04-04T04:07:49.654Z,0
2017-04-04T04:08:49.312Z,0
2017-04-04T04:09:49.605Z,0
2017-04-04T04:10:49.580Z,0
2017-04-04T04:11:49.567Z,0
2017-04-04T04:12:49.585Z,0
2017-04-04T04:13:49.521Z,0
2017-04-04T04:14:49.516Z,0
2017-04-04T04:15:49.512Z,0
2017-04-04T04:16:49.491Z,0
2017-04-04T04:17:49.450Z,0
2017-04-04T04:18:48.804Z,0
2017-04-04T04:19:49.105Z,0
2017-04-04T04:20:49.392Z,0
2017-04-04T04:21:49.094Z,0
2017-04-04T04:22:49.356Z,0
2017-04-04T04:23:49.342Z,0
2017-04-04T04:24:49.005Z,0
2017-04-04T04:25:49.290Z,0
2017-04-04T04:26:48.966Z,0
2017-04-04T04:27:49.260Z,0
2017-04-04T04:28:48.919Z,4
2017-04-04T04:29:49.214Z,0
2017-04-04T04:30:49.195Z,0
2017-04-04T04:31:49.180Z,4
2017-04-04T04:32:48.534Z,4
2017-04-04T04:33:49.137Z,4
2017-04-04T04:34:49.122Z,4
2017-04-04T04:35:49.145Z,4
2017-04-04T04:36:49.078Z,8
2017-04-04T04:37:49.058Z,8
2017-04-04T04:38:49.056Z,8
2017-04-04T04:39:48.422Z,12
2017-04-04T04:40:49.014Z,16
2017-04-04T04:41:48.985Z,16
2017-04-04T04:42:48.960Z,20
2017-04-04T04:43:48.944Z,28
2017-04-04T04:44:48.930Z,32
2017-04-04T04:45:48.915Z,36
2017-04-04T04:46:49.085Z,40
2017-04-04T04:47:48.864Z,48
2017-04-04T04:48:48.531Z,56
2017-04-04T04:49:48.828Z,64
2017-04-04T04:50:48.810Z,76
2017-04-04T04:51:48.788Z,84
2017-04-04T04:52:48.768Z,92
2017-04-04T04:53:48.433Z,108
2017-04-04T04:54:48.728Z,120
2017-04-04T04:55:48.710Z,132
2017-04-04T04:56:48.690Z,148
2017-04-04T04:57:48.667Z,164
2017-04-04T04:58:48.340Z,180
2017-04-04T04:59:48.640Z,196
2017-04-04T05:00:48.325Z,216
2017-04-04T05:01:48.609Z,236
2017-04-04T05:02:48.606Z,256
2017-04-04T05:03:48.241Z,276
2017-04-04T05:04:48.221Z,300
2017-04-04T05:05:48.511Z,320
2017-04-04T05:06:48.491Z,344
2017-04-04T05:07:48.475Z,372
2017-04-04T05:08:48.177Z,396
2017-04-04T05:09:48.471Z,420
2017-04-04T05:10:48.445Z,448
2017-04-04T05:11:48.140Z,476
2017-04-04T05:12:47.752Z,500
2017-04-04T05:13:48.358Z,532
2017-04-04T05:14:48.344Z,560
2017-04-04T05:15:48.370Z,588
2017-04-04T05:16:48.297Z,616
2017-04-04T05:17:47.964Z,644
2017-04-04T05:18:48.259Z,676
2017-04-04T05:19:48.242Z,704
2017-04-04T05:20:48.234Z,736
2017-04-04T05:21:47.894Z,764
2017-04-04T05:22:47.867Z,796
2017-04-04T05:23:48.156Z,824
2017-04-04T05:24:48.133Z,856
2017-04-04T05:25:48.125Z,884
2017-04-04T05:26:48.099Z,912
2017-04-04T05:27:47.776Z,940
2017-04-04T05:28:48.059Z,972
2017-04-04T05:29:48.047Z,996
2017-04-04T05:30:47.711Z,1028
2017-04-04T05:31:48.005Z,1056
2017-04-04T05:32:47.980Z,1084
2017-04-04T05:33:47.964Z,1116
2017-04-04T05:34:47.765Z,1144
2017-04-04T05:35:47.625Z,1172
2017-04-04T05:36:47.912Z,1200
2017-04-04T05:37:47.888Z,1228
2017-04-04T05:38:47.591Z,1256
2017-04-04T05:39:47.845Z,1284
2017-04-04T05:40:47.829Z,1308
2017-04-04T05:41:47.800Z,1332
2017-04-04T05:42:47.798Z,1364
2017-04-04T05:43:47.769Z,1388
2017-04-04T05:44:47.750Z,1416
2017-04-04T05:45:47.420Z,1440
2017-04-04T05:46:47.087Z,1468
2017-04-04T05:47:47.374Z,1496
2017-04-04T05:48:47.359Z,1524
2017-04-04T05:49:47.342Z,1548
2017-04-04T05:50:47.316Z,1572
2017-04-04T05:51:47.615Z,1592
2017-04-04T05:52:47.588Z,1620
2017-04-04T05:53:47.574Z,1644
2017-04-04T05:54:47.564Z,1668
2017-04-04T05:55:47.236Z,1692
2017-04-04T05:56:47.205Z,1716
2017-04-04T05:57:47.705Z,1736
2017-04-04T05:58:47.484Z,1756
2017-04-04T05:59:47.459Z,1780
2017-04-04T06:00:47.441Z,1808
2017-04-04T06:01:47.432Z,1828
2017-04-04T06:02:47.401Z,1856
2017-04-04T06:03:47.419Z,1880
2017-04-04T06:04:47.050Z,1904
2017-04-04T06:05:47.370Z,1920
2017-04-04T06:06:47.326Z,1940
2017-04-04T06:07:47.364Z,1960
2017-04-04T06:08:46.988Z,1976
2017-04-04T06:09:47.281Z,1988
2017-04-04T06:10:47.255Z,2016
2017-04-04T06:11:47.245Z,2036
2017-04-04T06:12:47.119Z,2056
2017-04-04T06:13:47.209Z,2076
2017-04-04T06:14:47.191Z,2100
2017-04-04T06:15:47.162Z,2124
2017-04-04T06:16:47.242Z,2140
2017-04-04T06:17:47.115Z,2160
2017-04-04T06:18:47.101Z,2184
2017-04-04T06:19:46.771Z,2204
2017-04-04T06:20:47.065Z,2224
2017-04-04T06:21:47.044Z,2244
2017-04-04T06:22:47.026Z,2260
2017-04-04T06:23:46.691Z,2276
2017-04-04T06:24:47.040Z,2288
2017-04-04T06:25:46.653Z,2304
2017-04-04T06:26:46.952Z,2320
2017-04-04T06:27:46.937Z,2340
2017-04-04T06:28:46.914Z,2360
2017-04-04T06:29:46.894Z,2388
2017-04-04T06:30:46.924Z,2412
2017-04-04T06:31:46.863Z,2432
2017-04-04T06:32:46.533Z,2460
2017-04-04T06:33:46.191Z,2476
2017-04-04T06:34:46.494Z,2496
2017-04-04T06:35:46.154Z,2524
2017-04-04T06:36:46.776Z,2548
2017-04-04T06:37:46.747Z,2552
2017-04-04T06:38:46.729Z,2576
2017-04-04T06:39:46.761Z,2596
2017-04-04T06:40:46.373Z,2604
2017-04-04T06:41:46.362Z,2624
2017-04-04T06:42:46.664Z,2632
2017-04-04T06:43:46.379Z,2640
2017-04-04T06:44:46.298Z,2652
2017-04-04T06:45:46.290Z,2664
2017-04-04T06:46:46.465Z,2684
2017-04-04T06:47:46.560Z,2704
2017-04-04T06:48:46.545Z,2716
2017-04-04T06:49:46.533Z,2736
2017-04-04T06:50:46.510Z,2760
2017-04-04T06:51:46.500Z,2788
2017-04-04T06:52:46.153Z,2808
2017-04-04T06:53:46.140Z,2832
2017-04-04T06:54:46.116Z,2872
2017-04-04T06:55:46.418Z,2916
2017-04-04T06:56:46.392Z,2948
2017-04-04T06:57:46.419Z,2980
2017-04-04T06:58:46.361Z,3012
2017-04-04T06:59:46.351Z,3036
2017-04-04T07:00:45.710Z,3044
2017-04-04T07:01:46.345Z,3064
2017-04-04T07:02:45.978Z,3084
2017-04-04T07:03:45.959Z,3092
2017-04-04T07:04:46.252Z,3108
2017-04-04T07:05:45.926Z,3108
2017-04-04T07:06:46.220Z,3128
2017-04-04T07:07:45.889Z,3140
2017-04-04T07:08:45.872Z,3144
2017-04-04T07:09:45.864Z,3184
2017-04-04T07:10:46.153Z,3216
2017-04-04T07:11:46.137Z,3236
2017-04-04T07:12:46.114Z,3268
2017-04-04T07:13:46.105Z,3260
2017-04-04T07:14:46.081Z,3256
2017-04-04T07:15:45.748Z,3288
2017-04-04T07:16:46.050Z,3336
2017-04-04T07:17:46.026Z,3372
2017-04-04T07:18:46.018Z,3400
2017-04-04T07:19:45.681Z,3424
2017-04-04T07:20:45.975Z,3420
2017-04-04T07:21:45.650Z,3456
2017-04-04T07:22:45.721Z,3488
2017-04-04T07:23:45.932Z,3492
2017-04-04T07:24:45.909Z,3520
2017-04-04T07:25:45.889Z,3528
2017-04-04T07:26:45.564Z,3564
2017-04-04T07:27:45.860Z,3620
2017-04-04T07:28:45.841Z,3648
2017-04-04T07:29:45.825Z,3692
2017-04-04T07:30:45.807Z,3716
2017-04-04T07:31:45.792Z,3764
2017-04-04T07:32:45.771Z,3812
2017-04-04T07:33:45.756Z,3840
2017-04-04T07:34:45.742Z,3880
2017-04-04T07:35:45.107Z,3904
2017-04-04T07:36:45.594Z,3936
2017-04-04T07:37:45.120Z,3992
2017-04-04T07:38:45.675Z,4048
2017-04-04T07:39:45.351Z,4096
2017-04-04T07:40:45.675Z,4144
2017-04-04T07:41:45.624Z,4160
2017-04-04T07:42:45.615Z,4188
2017-04-04T07:43:45.284Z,4228
2017-04-04T07:44:45.261Z,4288
2017-04-04T07:45:45.246Z,4348
2017-04-04T07:46:45.545Z,4328
2017-04-04T07:47:45.736Z,4344
2017-04-04T07:48:45.545Z,4364
2017-04-04T07:49:45.499Z,4376
2017-04-04T07:50:45.169Z,4412
2017-04-04T07:51:45.471Z,4396
2017-04-04T07:52:45.444Z,4396
2017-04-04T07:53:45.122Z,4432
2017-04-04T07:54:45.428Z,4460
2017-04-04T07:55:45.086Z,4476
2017-04-04T07:56:45.391Z,4516
2017-04-04T07:57:45.373Z,4628
2017-04-04T07:58:45.351Z,4752
2017-04-04T07:59:44.403Z,4824
2017-04-04T08:00:45.060Z,4956
2017-04-04T08:01:45.050Z,5040
2017-04-04T08:02:45.300Z,5104
2017-04-04T08:03:45.316Z,5204
2017-04-04T08:04:45.263Z,5268
2017-04-04T08:05:45.249Z,5384
2017-04-04T08:06:44.936Z,5488
2017-04-04T08:07:44.909Z,5524
2017-04-04T08:08:44.893Z,5512
2017-04-04T08:09:44.873Z,5512
2017-04-04T08:10:44.855Z,5584
2017-04-04T08:11:44.527Z,5708
2017-04-04T08:12:45.156Z,5828
2017-04-04T08:13:45.147Z,5904
2017-04-04T08:14:45.112Z,5952
2017-04-04T08:15:44.475Z,12104
2017-04-04T08:16:44.767Z,27840
2017-04-04T08:17:45.123Z,33504
2017-04-04T08:18:45.059Z,33600
2017-04-04T08:19:45.045Z,30880
2017-04-04T08:20:44.733Z,28096
2017-04-04T08:21:45.020Z,28864
2017-04-04T08:22:45.004Z,31296
2017-04-04T08:23:44.997Z,33568
2017-04-04T08:24:45.011Z,34368
2017-04-04T08:25:44.685Z,33952
2017-04-04T08:26:44.650Z,31712
2017-04-04T08:27:44.976Z,28256
2017-04-04T08:28:44.684Z,27648
2017-04-04T08:29:44.966Z,30336
2017-04-04T08:30:44.929Z,35552
2017-04-04T08:31:44.959Z,40576
2017-04-04T08:32:44.934Z,38816
2017-04-04T08:33:44.923Z,35680
2017-04-04T08:34:44.908Z,31520
2017-04-04T08:35:44.267Z,28896
2017-04-04T08:36:44.565Z,22240
2017-04-04T08:37:44.872Z,17824
2017-04-04T08:38:44.869Z,17376
2017-04-04T08:39:44.598Z,13448
2017-04-04T08:40:44.570Z,19936
2017-04-04T08:41:44.903Z,22304
2017-04-04T08:42:44.526Z,18816
2017-04-04T08:43:44.219Z,15104
2017-04-04T08:44:44.852Z,12856
2017-04-04T08:45:44.888Z,18400
2017-04-04T08:46:45.229Z,35936
2017-04-04T08:47:44.534Z,41024
2017-04-04T08:48:44.819Z,28448
2017-04-04T08:49:44.806Z,24704
2017-04-04T08:50:44.805Z,25888
2017-04-04T08:51:44.857Z,25696
2017-04-04T08:52:44.785Z,18752
2017-04-04T08:53:44.786Z,14716
2017-04-04T08:54:44.457Z,25856
2017-04-04T08:55:44.778Z,28736
2017-04-04T08:56:44.464Z,21248
2017-04-04T08:57:44.755Z,19552
2017-04-04T08:58:44.761Z,22528
2017-04-04T08:59:44.786Z,33696
2017-04-04T09:00:44.486Z,38976
2017-04-04T09:01:44.777Z,40576
2017-04-04T09:02:44.497Z,37152
2017-04-04T09:03:44.735Z,20672
2017-04-04T09:04:44.732Z,20704
2017-04-04T09:05:44.438Z,19904
2017-04-04T09:06:44.698Z,26368
2017-04-04T09:07:44.710Z,32000
2017-04-04T09:08:44.404Z,20736
2017-04-04T09:09:44.388Z,14652
2017-04-04T09:10:44.691Z,30272
2017-04-04T09:11:44.375Z,43264
2017-04-04T09:12:44.676Z,40096
2017-04-04T09:13:44.060Z,37984
2017-04-04T09:14:44.357Z,34144
2017-04-04T09:15:44.670Z,27840
2017-04-04T09:16:44.673Z,30304
2017-04-04T09:17:44.339Z,20032
2017-04-04T09:18:44.644Z,16148
2017-04-04T09:19:44.010Z,14692
2017-04-04T09:20:44.012Z,20960
2017-04-04T09:21:44.313Z,33984
2017-04-04T09:22:44.311Z,26240
2017-04-04T09:23:44.619Z,16256
2017-04-04T09:24:44.296Z,8976
2017-04-04T09:25:44.322Z,15616
2017-04-04T09:26:44.602Z,20576
2017-04-04T09:27:44.279Z,17216
2017-04-04T09:28:44.276Z,24128
2017-04-04T09:29:44.274Z,31776
2017-04-04T09:30:44.265Z,27584
2017-04-04T09:31:44.602Z,21024
2017-04-04T09:32:44.567Z,21504
2017-04-04T09:33:44.613Z,21120
2017-04-04T09:34:44.559Z,19520
2017-04-04T09:35:44.551Z,20736
2017-04-04T09:36:44.548Z,22272
2017-04-04T09:37:44.550Z,19360
2017-04-04T09:38:44.540Z,21152
2017-04-04T09:39:44.537Z,23712
2017-04-04T09:40:44.531Z,21984
2017-04-04T09:41:44.220Z,18528
2017-04-04T09:42:44.508Z,15860
2017-04-04T09:43:44.199Z,12496
2017-04-04T09:44:44.188Z,18912
2017-04-04T09:45:43.916Z,18912
2017-04-04T09:46:44.176Z,11952
2017-04-04T09:47:44.172Z,10376
2017-04-04T09:48:44.183Z,14456
2017-04-04T09:49:44.246Z,13360
2017-04-04T09:50:44.180Z,19136
2017-04-04T09:51:44.227Z,24352
2017-04-04T09:52:43.962Z,26752
2017-04-04T09:53:44.501Z,24256
2017-04-04T09:54:44.552Z,13396
2017-04-04T09:55:44.576Z,12312
2017-04-04T09:56:44.144Z,26144
2017-04-04T09:57:44.190Z,42560
2017-04-04T09:58:44.150Z,36416
2017-04-04T09:59:44.551Z,28576
2017-04-04T10:00:44.513Z,30912
2017-04-04T10:01:44.577Z,27744
2017-04-04T10:02:44.155Z,35136
2017-04-04T10:03:44.467Z,35744
2017-04-04T10:04:44.432Z,26016
2017-04-04T10:05:44.498Z,16640
2017-04-04T10:06:44.452Z,17152
2017-04-04T10:07:44.430Z,29056
2017-04-04T10:08:44.415Z,35552
2017-04-04T10:09:44.100Z,33920
2017-04-04T10:10:44.105Z,40896
2017-04-04T10:11:44.376Z,27072
2017-04-04T10:12:44.485Z,16796
2017-04-04T10:13:44.137Z,32512
2017-04-04T10:14:43.746Z,51616
2017-04-04T10:15:44.037Z,54688
2017-04-04T10:16:44.405Z,41856
2017-04-04T10:17:44.074Z,39008
2017-04-04T10:18:44.358Z,46560
2017-04-04T10:19:44.369Z,42848
2017-04-04T10:20:44.095Z,50432
2017-04-04T10:21:44.356Z,37632
2017-04-04T10:22:44.355Z,22688
2017-04-04T10:23:44.427Z,20160
2017-04-04T10:24:44.427Z,29536
2017-04-04T10:25:44.342Z,47424
2017-04-04T10:26:44.311Z,49920
2017-04-04T10:27:44.351Z,42688
2017-04-04T10:28:43.995Z,32064
2017-04-04T10:29:44.340Z,29600
2017-04-04T10:30:44.007Z,27936
2017-04-04T10:31:44.294Z,22496
2017-04-04T10:32:44.300Z,20992
2017-04-04T10:33:44.033Z,34496
2017-04-04T10:34:44.354Z,41792
2017-04-04T10:35:44.274Z,53184
2017-04-04T10:36:44.312Z,67136
2017-04-04T10:37:43.324Z,53632
2017-04-04T10:38:44.201Z,46336
2017-04-04T10:39:43.347Z,45312
2017-04-04T10:40:43.914Z,34656
2017-04-04T10:41:44.235Z,27872
2017-04-04T10:42:44.299Z,27552
2017-04-04T10:43:43.991Z,29888
2017-04-04T10:44:44.252Z,34144
2017-04-04T10:45:44.278Z,31296
2017-04-04T10:46:44.527Z,30688
2017-04-04T10:47:43.917Z,34752
2017-04-04T10:48:43.967Z,32224
2017-04-04T10:49:44.252Z,35616
2017-04-04T10:50:44.200Z,48416
2017-04-04T10:51:44.185Z,52704
2017-04-04T10:52:44.223Z,47840
2017-04-04T10:53:44.236Z,41952
2017-04-04T10:54:44.238Z,41408
2017-04-04T10:55:43.907Z,42848
2017-04-04T10:56:44.204Z,52192
2017-04-04T10:57:43.901Z,69536
2017-04-04T10:58:43.905Z,82464
2017-04-04T10:59:44.204Z,79904
2017-04-04T11:00:44.222Z,80960
2017-04-04T11:01:44.198Z,77216
2017-04-04T11:02:44.190Z,83040
2017-04-04T11:03:44.155Z,76640
2017-04-04T11:04:44.148Z,69856
2017-04-04T11:05:44.200Z,68800
2017-04-04T11:06:43.852Z,67136
2017-04-04T11:07:43.818Z,71904
2017-04-04T11:08:43.871Z,77312
2017-04-04T11:09:44.199Z,82464
2017-04-04T11:10:43.845Z,85536
2017-04-04T11:11:44.206Z,85024
2017-04-04T11:12:44.182Z,78496
2017-04-04T11:13:44.156Z,69728
2017-04-04T11:14:43.825Z,62048
2017-04-04T11:15:43.853Z,57344
2017-04-04T11:16:44.370Z,61056
2017-04-04T11:17:44.154Z,66496
2017-04-04T11:18:44.168Z,72736
2017-04-04T11:19:44.165Z,80160
2017-04-04T11:20:43.813Z,85376
2017-04-04T11:21:44.147Z,82880
2017-04-04T11:22:44.179Z,78592
2017-04-04T11:23:43.856Z,76416
2017-04-04T11:24:44.060Z,71968
2017-04-04T11:25:44.197Z,66624
2017-04-04T11:26:44.131Z,66688
2017-04-04T11:27:44.221Z,72384
2017-04-04T11:28:44.203Z,77088
2017-04-04T11:29:44.160Z,82528
2017-04-04T11:30:44.207Z,82016
2017-04-04T11:31:44.163Z,80864
2017-04-04T11:32:44.148Z,77568
2017-04-04T11:33:43.826Z,72512
2017-04-04T11:34:43.839Z,65472
2017-04-04T11:35:44.156Z,64768
2017-04-04T11:36:43.863Z,64064
2017-04-04T11:37:43.807Z,66240
2017-04-04T11:38:43.890Z,71008
2017-04-04T11:39:44.141Z,74976
2017-04-04T11:40:43.858Z,78688
2017-04-04T11:41:43.834Z,84736
2017-04-04T11:42:43.882Z,88672
2017-04-04T11:43:43.848Z,89184
2017-04-04T11:44:43.880Z,86880
2017-04-04T11:45:43.854Z,85568
2017-04-04T11:46:43.858Z,83232
2017-04-04T11:47:43.884Z,81728
2017-04-04T11:48:44.213Z,81088
2017-04-04T11:49:44.258Z,81376
2017-04-04T11:50:43.925Z,81728
2017-04-04T11:51:44.248Z,80288
2017-04-04T11:52:43.939Z,74976
2017-04-04T11:53:44.023Z,72288
2017-04-04T11:54:43.882Z,71552
2017-04-04T11:55:44.294Z,71328
2017-04-04T11:56:44.374Z,72096
2017-04-04T11:57:44.218Z,77344
2017-04-04T11:58:44.061Z,79872
2017-04-04T11:59:44.340Z,81600
2017-04-04T12:00:43.986Z,81536
2017-04-04T12:01:43.898Z,81120
2017-04-04T12:02:43.947Z,77440
2017-04-04T12:03:43.574Z,74656
2017-04-04T12:04:43.903Z,75264
2017-04-04T12:05:43.899Z,75680
2017-04-04T12:06:44.233Z,79296
2017-04-04T12:07:44.522Z,80896
2017-04-04T12:08:44.608Z,82816
2017-04-04T12:09:44.318Z,84480
2017-04-04T12:10:44.023Z,84608
2017-04-04T12:11:44.372Z,88288
2017-04-04T12:12:44.351Z,94848
2017-04-04T12:13:44.798Z,98336
2017-04-04T12:14:44.288Z,98176
2017-04-04T12:15:44.285Z,95712
2017-04-04T12:16:44.053Z,91296
2017-04-04T12:17:44.043Z,83552
2017-04-04T12:18:44.368Z,78656
2017-04-04T12:19:44.441Z,75840
2017-04-04T12:20:43.790Z,75776
2017-04-04T12:21:44.060Z,79584
2017-04-04T12:22:44.442Z,83424
2017-04-04T12:23:44.369Z,85088
2017-04-04T12:24:44.364Z,87840
2017-04-04T12:25:44.394Z,88352
2017-04-04T12:26:43.737Z,85280
2017-04-04T12:27:44.084Z,80320
2017-04-04T12:28:44.042Z,77408
2017-04-04T12:29:44.277Z,75328
2017-04-04T12:30:44.283Z,75168
2017-04-04T12:31:44.280Z,76384
2017-04-04T12:32:44.293Z,81024
2017-04-04T12:33:43.971Z,84288
2017-04-04T12:34:44.296Z,87808
2017-04-04T12:35:43.670Z,89248
2017-04-04T12:36:44.297Z,88800
2017-04-04T12:37:44.306Z,87392
2017-04-04T12:38:44.309Z,84224
2017-04-04T12:39:44.311Z,82976
2017-04-04T12:40:44.318Z,80960
2017-04-04T12:41:44.010Z,80448
2017-04-04T12:42:44.321Z,81216
2017-04-04T12:43:44.039Z,84096
2017-04-04T12:44:44.324Z,87936
2017-04-04T12:45:44.334Z,92768
2017-04-04T12:46:44.343Z,97472
2017-04-04T12:47:43.921Z,99488
2017-04-04T12:48:44.388Z,97568
2017-04-04T12:49:44.359Z,96192
2017-04-04T12:50:44.358Z,93632
2017-04-04T12:51:44.362Z,92480
2017-04-04T12:52:44.047Z,90720
2017-04-04T12:53:44.366Z,92224
2017-04-04T12:54:44.369Z,89600
2017-04-04T12:55:44.374Z,86208
2017-04-04T12:56:44.425Z,83008
2017-04-04T12:57:44.427Z,78624
2017-04-04T12:58:44.384Z,79872
2017-04-04T12:59:44.387Z,80288
2017-04-04T13:00:44.387Z,81216
2017-04-04T13:01:44.390Z,80896
2017-04-04T13:02:44.399Z,82336
2017-04-04T13:03:44.398Z,81088
2017-04-04T13:04:44.402Z,82336
2017-04-04T13:05:44.404Z,80832
2017-04-04T13:06:44.421Z,78880
2017-04-04T13:07:44.410Z,79168
2017-04-04T13:08:44.101Z,78784
2017-04-04T13:09:44.111Z,80416
2017-04-04T13:10:44.618Z,80768
2017-04-04T13:11:44.472Z,77920
2017-04-04T13:12:44.115Z,74688
2017-04-04T13:13:44.121Z,72192
2017-04-04T13:14:44.122Z,70944
2017-04-04T13:15:44.126Z,67872
2017-04-04T13:16:44.448Z,65792
2017-04-04T13:17:44.450Z,66528
2017-04-04T13:18:44.446Z,67968
2017-04-04T13:19:44.457Z,71264
2017-04-04T13:20:44.459Z,74848
2017-04-04T13:21:44.501Z,76096
2017-04-04T13:22:44.459Z,74080
2017-04-04T13:23:44.535Z,72768
2017-04-04T13:24:44.472Z,70752
2017-04-04T13:25:44.157Z,69280
2017-04-04T13:26:44.164Z,70208
2017-04-04T13:27:44.491Z,71264
2017-04-04T13:28:44.501Z,73184
2017-04-04T13:29:44.544Z,76480
2017-04-04T13:30:44.169Z,78400
2017-04-04T13:31:44.194Z,78144
2017-04-04T13:32:44.177Z,75840
2017-04-04T13:33:44.503Z,72384
2017-04-04T13:34:44.541Z,72000
2017-04-04T13:35:44.511Z,74784
2017-04-04T13:36:44.509Z,76224
2017-04-04T13:37:44.515Z,77568